Terminal Aerodrome Forecast
Issued by NWS

Home | Current Version | Previous Version | Text Only | Print | Product List | Glossary On
Versions: 1 2 3 4 5 6 7 8 9 10 11 12 13 14 15 16
000
FTUS43 KEAX 252320
TAFSTJ
TAF
KSTJ 252320Z 2600/2624 01004KT P6SM SKC
      TEMPO 2610/2614 4SM BR
     FM261400 13005KT P6SM FEW050=

USA.gov is the U.S. government's official web portal to all federal, state and local government web resources and services.